Terminal Aerodrome Forecast
Issued by NWS

Home | Current Version | Previous Version | Text Only | Print | Product List | Glossary On
Versions: 1 2 3 4 5 6 7 8 9 10 11 12 13
000
FTUS43 KJKL 241700
TAFSME
TAF
KSME 241739Z 2418/2518 23023G38KT P6SM BKN050
     FM241900 25014G22KT P6SM SCT040
     FM242200 26008G18KT P6SM SCT030
     FM250300 VRB05KT P6SM SCT030 BKN100=

USA.gov is the U.S. government's official web portal to all federal, state and local government web resources and services.